• Join FlightAware (Why Join?)
  • Login
  • US Flag 
02:49PM EDT


 

Airport Tracker/Info


-or-


 

Live Flight TrackerFlight Track Log ✈ UCA5001 ✈ 10-May-2013 ✈ KIAD - KROA

Flight Track Log - Related Links

Times and Time Zones

All times are in EDT time to prevent confusion due to time zone crossing. See the UCA5001 flight status page for this flight to view local times or setup timezone preferences in your user account.

Time Position Orientation Groundspeed Altitude Reporting Facility
EDT Latitude Longitude Course Direction KTS MPH feet Rate Location/Type
03:48PM 38.9333 -77.5000 218° Southwest 128 147 1,500  Level Potomac TRACON
03:49PM 38.9000 -77.5333 218° Southwest 152 175 2,900 1,500 Climbing Potomac TRACON
03:50PM 38.8667 -77.5833 229° Southwest 153 176 4,600 1,680 Climbing Potomac TRACON
03:51PM 38.8333 -77.6167 218° Southwest 154 177 6,300 1,200 Climbing Potomac TRACON
03:52PM 38.8167 -77.6500 237° Southwest 173 199 7,000 780 Climbing Potomac TRACON
03:53PM 38.7825 -77.6875 221° Southwest 204 235 7,600 1,260 Climbing Washington Center
03:54PM 38.7442 -77.7369 225° Southwest 183 211 9,300 1,440 Climbing Washington Center
03:55PM 38.7058 -77.7836 224° Southwest 175 201 10,600 1,200 Climbing Washington Center
03:56PM 38.6736 -77.8281 227° Southwest 183 211 11,800 1,200 Climbing Washington Center
03:57PM 38.6375 -77.8719 224° Southwest 188 216 13,100 1,080 Climbing Washington Center
03:58PM 38.6094 -77.9217 234° Southwest 188 216 14,000 420 Climbing Washington Center
03:59PM 38.5728 -77.9844 233° Southwest 205 236 14,000  Level Washington Center
04:00PM 38.5339 -78.0494 233° Southwest 221 254 14,000  Level Washington Center
04:01PM 38.4950 -78.1144 233° Southwest 231 266 14,000  Level Washington Center
04:02PM 38.4539 -78.1847 233° Southwest 243 280 14,000  Level Washington Center
04:03PM 38.4108 -78.2519 231° Southwest 243 280 14,000  Level Washington Center
04:04PM 38.3697 -78.3194 232° Southwest 243 280 14,000  Level Washington Center
04:05PM 38.3283 -78.3894 233° Southwest 243 280 14,000  Level Washington Center
04:06PM 38.2872 -78.4567 232° Southwest 243 280 14,000  Level Washington Center
04:07PM 38.2417 -78.5264 230° Southwest 243 280 14,000  Level Washington Center
04:08PM 38.2025 -78.5961 234° Southwest 243 280 14,000  Level Washington Center
04:09PM 38.1611 -78.6631 232° Southwest 243 280 14,000  Level Washington Center
04:10PM 38.1264 -78.7197 232° Southwest 243 280 14,000  Level Washington Center
04:11PM 38.0828 -78.7864 230° Southwest 243 280 14,000  Level Washington Center
04:12PM 38.0433 -78.8533 233° Southwest 243 280 14,000  Level Washington Center
04:13PM 37.9997 -78.9225 231° Southwest 243 280 14,000  Level Washington Center
04:14PM 37.9583 -78.9867 231° Southwest 243 280 14,000  Level Washington Center
04:15PM 37.9169 -79.0533 232° Southwest 243 280 14,000  Level Washington Center
04:16PM 37.8753 -79.1172 230° Southwest 243 280 14,000  Level Washington Center
04:17PM 37.8381 -79.1758 231° Southwest 243 280 14,000  Level Washington Center
04:18PM 37.7967 -79.2422 232° Southwest 243 280 14,100  Climbing Washington Center
04:19PM 37.7569 -79.3086 233° Southwest 243 280 14,100 -180 Level Washington Center
04:20PM 37.7175 -79.3697 231° Southwest 243 280 13,800 -780 Descending Washington Center
04:21PM 37.6672 -79.4406 228° Southwest 248 285 12,600 -1,440 Descending Washington Center
04:22PM 37.6297 -79.5042 233° Southwest 253 291 10,900 -1,920 Descending Washington Center
04:23PM 37.5792 -79.5803 230° Southwest 253 291 8,800 -1,920 Descending Washington Center
04:24PM 37.5439 -79.6386 233° Southwest 253 291 7,100 -1,560 Descending Washington Center
04:25PM 37.4975 -79.7147 232° Southwest 247 284 5,800 -1,260 Descending Washington Center
04:26PM 37.4600 -79.7728 231° Southwest 247 284 4,700 -1,080 Descending Washington Center
04:27PM 37.4178 -79.8489 235° Southwest 247 284 3,700 -1,020 Descending Washington Center
04:28PM 37.3825 -79.8992 229° Southwest 232 267 2,700 -1,020 Descending Washington Center
04:29PM 37.3517 -79.9419 228° Southwest 206 237 1,700 -1,020 Descending Washington Center